Crisp, Illinois
Current Conditions -  °F | °C
As of 12:15 PM on Thursday 29 Jan 2015 (Local Time) from KFWC Reporting Station
Overcast Overcast  
Wind Chill: 33°   Ceiling: 1700
Heat Index: 40°   Visibility: 7mi
Dew Point: 34°   Wind: 9mph
Humidity: 80%   Direction: 290°WNW
Pressure: 30.09"   Gusts: 22mph
Location:  38.3069°N, 88.55°W
Report Text: KFWC 291815Z AUTO 29008G19KT 7SM BKN017 OVC023 04/01 A3009 RMK AO1 T00420011
Loading
Personal Weather Stations






























Interactive Weather Map New forecast layout! Learn more

10-Day Weather Forecast

Advertisements
Track Severe Weather on mobile